sensor_id;sensor_type;location;lat;lon;timestamp;temperature;humidity
52669;DHT22;74205;52.786;6.892;2023-12-20T00:00:16;6.10;100.00
52669;DHT22;74205;52.786;6.892;2023-12-20T00:03:37;6.10;100.00
52669;DHT22;74205;52.786;6.892;2023-12-20T00:06:57;6.10;100.00
52669;DHT22;74205;52.786;6.892;2023-12-20T00:10:18;6.10;100.00
52669;DHT22;74205;52.786;6.892;2023-12-20T00:13:38;6.10;100.00
52669;DHT22;74205;52.786;6.892;2023-12-20T00:16:59;6.10;100.00
52669;DHT22;74205;52.786;6.892;2023-12-20T00:20:19;6.20;100.00
52669;DHT22;74205;52.786;6.892;2023-12-20T00:23:40;6.20;100.00
52669;DHT22;74205;52.786;6.892;2023-12-20T00:27:01;6.20;100.00
52669;DHT22;74205;52.786;6.892;2023-12-20T00:30:21;6.20;100.00
52669;DHT22;74205;52.786;6.892;2023-12-20T00:33:42;6.20;100.00
52669;DHT22;74205;52.786;6.892;2023-12-20T00:37:04;6.20;100.00
52669;DHT22;74205;52.786;6.892;2023-12-20T00:40:24;6.20;100.00
52669;DHT22;74205;52.786;6.892;2023-12-20T00:43:45;6.20;100.00
52669;DHT22;74205;52.786;6.892;2023-12-20T00:47:05;6.20;100.00
52669;DHT22;74205;52.786;6.892;2023-12-20T00:50:26;6.10;100.00
52669;DHT22;74205;52.786;6.892;2023-12-20T00:53:46;6.10;100.00
52669;DHT22;74205;52.786;6.892;2023-12-20T00:57:10;6.00;100.00
52669;DHT22;74205;52.786;6.892;2023-12-20T01:00:30;6.10;100.00
52669;DHT22;74205;52.786;6.892;2023-12-20T01:03:51;6.10;100.00
52669;DHT22;74205;52.786;6.892;2023-12-20T01:07:11;6.00;100.00
52669;DHT22;74205;52.786;6.892;2023-12-20T01:10:32;6.10;100.00
52669;DHT22;74205;52.786;6.892;2023-12-20T01:13:53;6.10;100.00
52669;DHT22;74205;52.786;6.892;2023-12-20T01:17:14;6.00;100.00
52669;DHT22;74205;52.786;6.892;2023-12-20T01:20:34;6.00;100.00
52669;DHT22;74205;52.786;6.892;2023-12-20T01:23:55;6.00;100.00
52669;DHT22;74205;52.786;6.892;2023-12-20T01:27:15;6.00;100.00
52669;DHT22;74205;52.786;6.892;2023-12-20T01:30:36;6.00;100.00
52669;DHT22;74205;52.786;6.892;2023-12-20T01:33:56;5.90;100.00
52669;DHT22;74205;52.786;6.892;2023-12-20T01:37:17;5.90;100.00
52669;DHT22;74205;52.786;6.892;2023-12-20T01:40:37;5.90;100.00
52669;DHT22;74205;52.786;6.892;2023-12-20T01:43:58;5.90;100.00
52669;DHT22;74205;52.786;6.892;2023-12-20T01:47:18;5.90;100.00
52669;DHT22;74205;52.786;6.892;2023-12-20T01:50:39;5.90;100.00
52669;DHT22;74205;52.786;6.892;2023-12-20T01:54:00;5.90;100.00
52669;DHT22;74205;52.786;6.892;2023-12-20T01:57:22;5.90;100.00
52669;DHT22;74205;52.786;6.892;2023-12-20T02:00:42;5.90;100.00
52669;DHT22;74205;52.786;6.892;2023-12-20T02:04:04;5.80;100.00
52669;DHT22;74205;52.786;6.892;2023-12-20T02:07:24;5.90;100.00
52669;DHT22;74205;52.786;6.892;2023-12-20T02:10:45;5.90;100.00
52669;DHT22;74205;52.786;6.892;2023-12-20T02:14:06;5.90;100.00
52669;DHT22;74205;52.786;6.892;2023-12-20T02:17:27;5.90;100.00
52669;DHT22;74205;52.786;6.892;2023-12-20T02:20:48;5.90;100.00
52669;DHT22;74205;52.786;6.892;2023-12-20T02:24:08;5.90;100.00
52669;DHT22;74205;52.786;6.892;2023-12-20T02:27:29;5.90;100.00
52669;DHT22;74205;52.786;6.892;2023-12-20T02:30:50;6.00;100.00
52669;DHT22;74205;52.786;6.892;2023-12-20T02:34:10;6.00;100.00
52669;DHT22;74205;52.786;6.892;2023-12-20T02:37:32;6.00;100.00
52669;DHT22;74205;52.786;6.892;2023-12-20T02:40:53;6.00;100.00
52669;DHT22;74205;52.786;6.892;2023-12-20T02:44:13;6.00;100.00
52669;DHT22;74205;52.786;6.892;2023-12-20T02:47:34;6.10;100.00
52669;DHT22;74205;52.786;6.892;2023-12-20T02:50:55;6.10;100.00
52669;DHT22;74205;52.786;6.892;2023-12-20T02:54:15;6.10;100.00
52669;DHT22;74205;52.786;6.892;2023-12-20T02:57:36;6.10;100.00
52669;DHT22;74205;52.786;6.892;2023-12-20T03:00:57;6.20;100.00
52669;DHT22;74205;52.786;6.892;2023-12-20T03:04:17;6.10;100.00
52669;DHT22;74205;52.786;6.892;2023-12-20T03:07:38;6.10;100.00
52669;DHT22;74205;52.786;6.892;2023-12-20T03:10:59;6.10;100.00
52669;DHT22;74205;52.786;6.892;2023-12-20T03:14:20;6.10;100.00
52669;DHT22;74205;52.786;6.892;2023-12-20T03:17:40;6.20;100.00
52669;DHT22;74205;52.786;6.892;2023-12-20T03:21:01;6.20;100.00
52669;DHT22;74205;52.786;6.892;2023-12-20T03:24:21;6.10;100.00
52669;DHT22;74205;52.786;6.892;2023-12-20T03:27:42;6.10;100.00
52669;DHT22;74205;52.786;6.892;2023-12-20T03:31:03;6.20;100.00
52669;DHT22;74205;52.786;6.892;2023-12-20T03:34:23;6.20;100.00
52669;DHT22;74205;52.786;6.892;2023-12-20T03:37:44;6.20;100.00
52669;DHT22;74205;52.786;6.892;2023-12-20T03:41:04;6.20;100.00
52669;DHT22;74205;52.786;6.892;2023-12-20T03:44:25;6.20;100.00
52669;DHT22;74205;52.786;6.892;2023-12-20T03:47:45;6.30;100.00
52669;DHT22;74205;52.786;6.892;2023-12-20T03:51:06;6.20;100.00
52669;DHT22;74205;52.786;6.892;2023-12-20T03:54:26;6.20;100.00
52669;DHT22;74205;52.786;6.892;2023-12-20T03:57:47;6.10;100.00
52669;DHT22;74205;52.786;6.892;2023-12-20T04:01:11;6.10;100.00
52669;DHT22;74205;52.786;6.892;2023-12-20T04:04:32;6.20;100.00
52669;DHT22;74205;52.786;6.892;2023-12-20T04:07:53;6.10;100.00
52669;DHT22;74205;52.786;6.892;2023-12-20T04:11:13;6.10;100.00
52669;DHT22;74205;52.786;6.892;2023-12-20T04:14:34;6.10;100.00
52669;DHT22;74205;52.786;6.892;2023-12-20T04:17:54;6.10;100.00
52669;DHT22;74205;52.786;6.892;2023-12-20T04:21:15;6.10;100.00
52669;DHT22;74205;52.786;6.892;2023-12-20T04:24:35;6.20;100.00
52669;DHT22;74205;52.786;6.892;2023-12-20T04:27:56;6.20;100.00
52669;DHT22;74205;52.786;6.892;2023-12-20T04:31:16;6.20;100.00
52669;DHT22;74205;52.786;6.892;2023-12-20T04:34:38;6.10;100.00
52669;DHT22;74205;52.786;6.892;2023-12-20T04:37:59;6.20;100.00
52669;DHT22;74205;52.786;6.892;2023-12-20T04:41:19;6.20;100.00
52669;DHT22;74205;52.786;6.892;2023-12-20T04:44:40;6.20;100.00
52669;DHT22;74205;52.786;6.892;2023-12-20T04:48:01;6.30;100.00
52669;DHT22;74205;52.786;6.892;2023-12-20T04:51:22;6.30;100.00
52669;DHT22;74205;52.786;6.892;2023-12-20T04:54:43;6.30;100.00
52669;DHT22;74205;52.786;6.892;2023-12-20T04:58:03;6.30;100.00
52669;DHT22;74205;52.786;6.892;2023-12-20T05:01:24;6.30;100.00
52669;DHT22;74205;52.786;6.892;2023-12-20T05:04:45;6.40;100.00
52669;DHT22;74205;52.786;6.892;2023-12-20T05:08:06;6.40;100.00
52669;DHT22;74205;52.786;6.892;2023-12-20T05:11:26;6.40;100.00
52669;DHT22;74205;52.786;6.892;2023-12-20T05:14:47;6.40;100.00
52669;DHT22;74205;52.786;6.892;2023-12-20T05:18:07;6.40;100.00
52669;DHT22;74205;52.786;6.892;2023-12-20T05:21:28;6.50;100.00
52669;DHT22;74205;52.786;6.892;2023-12-20T05:24:48;6.50;100.00
52669;DHT22;74205;52.786;6.892;2023-12-20T05:28:09;6.50;100.00
52669;DHT22;74205;52.786;6.892;2023-12-20T05:31:30;6.60;100.00
52669;DHT22;74205;52.786;6.892;2023-12-20T05:34:51;6.60;100.00
52669;DHT22;74205;52.786;6.892;2023-12-20T05:38:11;6.60;100.00
52669;DHT22;74205;52.786;6.892;2023-12-20T05:41:32;6.70;100.00
52669;DHT22;74205;52.786;6.892;2023-12-20T05:44:52;6.70;100.00
52669;DHT22;74205;52.786;6.892;2023-12-20T05:48:13;6.70;100.00
52669;DHT22;74205;52.786;6.892;2023-12-20T05:51:34;6.70;100.00
52669;DHT22;74205;52.786;6.892;2023-12-20T05:54:54;6.70;100.00
52669;DHT22;74205;52.786;6.892;2023-12-20T05:58:16;6.70;100.00
52669;DHT22;74205;52.786;6.892;2023-12-20T06:01:36;6.70;100.00
52669;DHT22;74205;52.786;6.892;2023-12-20T06:04:57;6.70;100.00
52669;DHT22;74205;52.786;6.892;2023-12-20T06:08:18;6.70;100.00
52669;DHT22;74205;52.786;6.892;2023-12-20T06:11:38;6.70;100.00
52669;DHT22;74205;52.786;6.892;2023-12-20T06:14:59;6.70;100.00
52669;DHT22;74205;52.786;6.892;2023-12-20T06:18:19;6.80;100.00
52669;DHT22;74205;52.786;6.892;2023-12-20T06:21:40;6.80;100.00
52669;DHT22;74205;52.786;6.892;2023-12-20T06:25:01;6.80;100.00
52669;DHT22;74205;52.786;6.892;2023-12-20T06:28:23;6.80;100.00
52669;DHT22;74205;52.786;6.892;2023-12-20T06:31:43;6.80;100.00
52669;DHT22;74205;52.786;6.892;2023-12-20T06:35:04;6.90;100.00
52669;DHT22;74205;52.786;6.892;2023-12-20T06:38:25;6.90;100.00
52669;DHT22;74205;52.786;6.892;2023-12-20T06:41:46;6.90;100.00
52669;DHT22;74205;52.786;6.892;2023-12-20T06:45:06;6.90;100.00
52669;DHT22;74205;52.786;6.892;2023-12-20T06:48:27;6.90;100.00
52669;DHT22;74205;52.786;6.892;2023-12-20T06:51:48;7.00;100.00
52669;DHT22;74205;52.786;6.892;2023-12-20T06:55:08;7.00;100.00
52669;DHT22;74205;52.786;6.892;2023-12-20T06:58:29;7.00;100.00
52669;DHT22;74205;52.786;6.892;2023-12-20T07:01:49;7.00;100.00
52669;DHT22;74205;52.786;6.892;2023-12-20T07:05:10;7.00;100.00
52669;DHT22;74205;52.786;6.892;2023-12-20T07:08:31;7.00;100.00
52669;DHT22;74205;52.786;6.892;2023-12-20T07:11:51;7.00;100.00
52669;DHT22;74205;52.786;6.892;2023-12-20T07:15:12;7.10;100.00
52669;DHT22;74205;52.786;6.892;2023-12-20T07:18:33;7.00;100.00
52669;DHT22;74205;52.786;6.892;2023-12-20T07:21:53;7.00;100.00
52669;DHT22;74205;52.786;6.892;2023-12-20T07:25:14;7.00;100.00
52669;DHT22;74205;52.786;6.892;2023-12-20T07:28:34;7.00;100.00
52669;DHT22;74205;52.786;6.892;2023-12-20T07:31:55;7.10;100.00
52669;DHT22;74205;52.786;6.892;2023-12-20T07:35:16;7.10;100.00
52669;DHT22;74205;52.786;6.892;2023-12-20T07:38:37;7.10;100.00
52669;DHT22;74205;52.786;6.892;2023-12-20T07:41:57;7.10;100.00
52669;DHT22;74205;52.786;6.892;2023-12-20T07:45:18;7.10;100.00
52669;DHT22;74205;52.786;6.892;2023-12-20T07:48:38;7.10;100.00
52669;DHT22;74205;52.786;6.892;2023-12-20T07:51:59;7.10;100.00
52669;DHT22;74205;52.786;6.892;2023-12-20T07:55:20;7.10;100.00
52669;DHT22;74205;52.786;6.892;2023-12-20T07:58:40;7.10;100.00
52669;DHT22;74205;52.786;6.892;2023-12-20T08:02:01;7.10;100.00
52669;DHT22;74205;52.786;6.892;2023-12-20T08:05:21;7.10;100.00
52669;DHT22;74205;52.786;6.892;2023-12-20T08:08:42;7.20;100.00
52669;DHT22;74205;52.786;6.892;2023-12-20T08:12:03;7.20;100.00
52669;DHT22;74205;52.786;6.892;2023-12-20T08:15:24;7.20;100.00
52669;DHT22;74205;52.786;6.892;2023-12-20T08:18:45;7.20;100.00
52669;DHT22;74205;52.786;6.892;2023-12-20T08:22:05;7.20;100.00
52669;DHT22;74205;52.786;6.892;2023-12-20T08:25:26;7.20;100.00
52669;DHT22;74205;52.786;6.892;2023-12-20T08:28:47;7.30;100.00
52669;DHT22;74205;52.786;6.892;2023-12-20T08:32:08;7.30;100.00
52669;DHT22;74205;52.786;6.892;2023-12-20T08:35:29;7.30;100.00
52669;DHT22;74205;52.786;6.892;2023-12-20T08:38:50;7.40;100.00
52669;DHT22;74205;52.786;6.892;2023-12-20T08:42:10;7.40;100.00
52669;DHT22;74205;52.786;6.892;2023-12-20T08:45:31;7.40;100.00
52669;DHT22;74205;52.786;6.892;2023-12-20T08:48:51;7.40;100.00
52669;DHT22;74205;52.786;6.892;2023-12-20T08:52:12;7.50;99.90
52669;DHT22;74205;52.786;6.892;2023-12-20T08:55:33;7.50;99.60
52669;DHT22;74205;52.786;6.892;2023-12-20T08:58:53;7.50;98.80
52669;DHT22;74205;52.786;6.892;2023-12-20T09:02:14;7.60;98.70
52669;DHT22;74205;52.786;6.892;2023-12-20T09:05:34;7.60;98.80
52669;DHT22;74205;52.786;6.892;2023-12-20T09:08:55;7.70;98.70
52669;DHT22;74205;52.786;6.892;2023-12-20T09:12:18;7.70;98.60
52669;DHT22;74205;52.786;6.892;2023-12-20T09:15:39;7.70;98.70
52669;DHT22;74205;52.786;6.892;2023-12-20T09:18:59;7.80;98.90
52669;DHT22;74205;52.786;6.892;2023-12-20T09:22:20;8.00;97.50
52669;DHT22;74205;52.786;6.892;2023-12-20T09:25:41;8.00;97.00
52669;DHT22;74205;52.786;6.892;2023-12-20T09:29:01;8.00;96.60
52669;DHT22;74205;52.786;6.892;2023-12-20T09:32:22;8.00;96.90
52669;DHT22;74205;52.786;6.892;2023-12-20T09:35:42;8.00;96.80
52669;DHT22;74205;52.786;6.892;2023-12-20T09:39:03;8.00;97.00
52669;DHT22;74205;52.786;6.892;2023-12-20T09:42:29;8.00;97.10
52669;DHT22;74205;52.786;6.892;2023-12-20T09:45:53;8.00;96.90
52669;DHT22;74205;52.786;6.892;2023-12-20T09:49:14;8.00;96.80
52669;DHT22;74205;52.786;6.892;2023-12-20T09:52:36;8.20;96.50
52669;DHT22;74205;52.786;6.892;2023-12-20T09:55:59;8.50;95.20
52669;DHT22;74205;52.786;6.892;2023-12-20T09:59:20;9.00;94.00
52669;DHT22;74205;52.786;6.892;2023-12-20T10:02:49;9.00;93.70
52669;DHT22;74205;52.786;6.892;2023-12-20T10:06:10;8.80;92.70
52669;DHT22;74205;52.786;6.892;2023-12-20T10:09:32;8.50;91.80
52669;DHT22;74205;52.786;6.892;2023-12-20T10:13:07;8.20;92.00
52669;DHT22;74205;52.786;6.892;2023-12-20T10:16:29;7.90;93.20
52669;DHT22;74205;52.786;6.892;2023-12-20T10:19:50;7.70;93.60
52669;DHT22;74205;52.786;6.892;2023-12-20T10:23:10;7.50;94.10
52669;DHT22;74205;52.786;6.892;2023-12-20T10:26:31;7.30;94.60
52669;DHT22;74205;52.786;6.892;2023-12-20T10:29:52;7.20;95.00
52669;DHT22;74205;52.786;6.892;2023-12-20T10:33:12;7.10;95.10
52669;DHT22;74205;52.786;6.892;2023-12-20T10:36:33;7.00;95.20
52669;DHT22;74205;52.786;6.892;2023-12-20T10:39:55;7.00;95.30
52669;DHT22;74205;52.786;6.892;2023-12-20T10:43:19;7.00;95.30
52669;DHT22;74205;52.786;6.892;2023-12-20T10:46:41;7.00;95.20
52669;DHT22;74205;52.786;6.892;2023-12-20T10:50:08;7.00;95.30
52669;DHT22;74205;52.786;6.892;2023-12-20T10:53:29;7.00;95.70
52669;DHT22;74205;52.786;6.892;2023-12-20T10:56:52;6.90;95.60
52669;DHT22;74205;52.786;6.892;2023-12-20T11:00:14;6.90;95.80
52669;DHT22;74205;52.786;6.892;2023-12-20T11:03:36;6.90;96.00
52669;DHT22;74205;52.786;6.892;2023-12-20T11:07:15;7.00;96.00
52669;DHT22;74205;52.786;6.892;2023-12-20T11:10:48;7.00;95.70
52669;DHT22;74205;52.786;6.892;2023-12-20T11:14:17;7.10;95.80
52669;DHT22;74205;52.786;6.892;2023-12-20T11:17:39;7.10;95.50
52669;DHT22;74205;52.786;6.892;2023-12-20T11:21:06;7.10;95.20
52669;DHT22;74205;52.786;6.892;2023-12-20T11:24:27;7.10;95.20
52669;DHT22;74205;52.786;6.892;2023-12-20T11:28:07;7.10;95.30
52669;DHT22;74205;52.786;6.892;2023-12-20T11:31:40;7.00;94.90
52669;DHT22;74205;52.786;6.892;2023-12-20T11:35:17;7.00;95.20
52669;DHT22;74205;52.786;6.892;2023-12-20T11:38:38;7.10;95.20
52669;DHT22;74205;52.786;6.892;2023-12-20T11:42:04;7.10;94.70
52669;DHT22;74205;52.786;6.892;2023-12-20T11:45:25;7.20;94.00
52669;DHT22;74205;52.786;6.892;2023-12-20T11:48:48;7.20;93.80
52669;DHT22;74205;52.786;6.892;2023-12-20T11:52:12;7.30;93.60
52669;DHT22;74205;52.786;6.892;2023-12-20T11:55:33;7.40;93.00
52669;DHT22;74205;52.786;6.892;2023-12-20T11:58:56;7.50;93.20
52669;DHT22;74205;52.786;6.892;2023-12-20T12:02:16;7.50;92.90
52669;DHT22;74205;52.786;6.892;2023-12-20T12:05:37;7.50;93.10
52669;DHT22;74205;52.786;6.892;2023-12-20T12:08:57;7.40;93.20
52669;DHT22;74205;52.786;6.892;2023-12-20T12:12:19;7.40;93.50
52669;DHT22;74205;52.786;6.892;2023-12-20T12:15:39;7.40;93.80
52669;DHT22;74205;52.786;6.892;2023-12-20T12:19:02;7.40;93.90
52669;DHT22;74205;52.786;6.892;2023-12-20T12:22:23;7.40;94.30
52669;DHT22;74205;52.786;6.892;2023-12-20T12:25:47;7.40;94.30
52669;DHT22;74205;52.786;6.892;2023-12-20T12:29:09;7.40;94.50
52669;DHT22;74205;52.786;6.892;2023-12-20T12:32:30;7.40;94.50
52669;DHT22;74205;52.786;6.892;2023-12-20T12:35:50;7.50;94.90
52669;DHT22;74205;52.786;6.892;2023-12-20T12:39:14;7.50;94.60
52669;DHT22;74205;52.786;6.892;2023-12-20T12:42:39;7.40;94.90
52669;DHT22;74205;52.786;6.892;2023-12-20T12:46:00;7.40;95.10
52669;DHT22;74205;52.786;6.892;2023-12-20T12:49:20;7.40;95.30
52669;DHT22;74205;52.786;6.892;2023-12-20T12:52:42;7.40;95.00
52669;DHT22;74205;52.786;6.892;2023-12-20T12:56:02;7.30;95.10
52669;DHT22;74205;52.786;6.892;2023-12-20T12:59:23;7.30;95.00
52669;DHT22;74205;52.786;6.892;2023-12-20T13:02:44;7.30;95.30
52669;DHT22;74205;52.786;6.892;2023-12-20T13:06:05;7.20;95.10
52669;DHT22;74205;52.786;6.892;2023-12-20T13:09:26;7.20;95.20
52669;DHT22;74205;52.786;6.892;2023-12-20T13:12:47;7.20;95.30
52669;DHT22;74205;52.786;6.892;2023-12-20T13:16:07;7.20;95.10
52669;DHT22;74205;52.786;6.892;2023-12-20T13:19:28;7.10;93.70
52669;DHT22;74205;52.786;6.892;2023-12-20T13:22:49;7.10;93.70
52669;DHT22;74205;52.786;6.892;2023-12-20T13:26:09;7.00;93.40
52669;DHT22;74205;52.786;6.892;2023-12-20T13:29:30;7.00;93.30
52669;DHT22;74205;52.786;6.892;2023-12-20T13:32:50;6.90;93.50
52669;DHT22;74205;52.786;6.892;2023-12-20T13:36:11;6.90;93.90
52669;DHT22;74205;52.786;6.892;2023-12-20T13:39:32;6.80;94.30
52669;DHT22;74205;52.786;6.892;2023-12-20T13:42:53;6.70;94.70
52669;DHT22;74205;52.786;6.892;2023-12-20T13:46:15;6.70;95.00
52669;DHT22;74205;52.786;6.892;2023-12-20T13:49:35;6.70;95.40
52669;DHT22;74205;52.786;6.892;2023-12-20T13:52:56;6.70;95.80
52669;DHT22;74205;52.786;6.892;2023-12-20T13:56:16;6.60;96.10
52669;DHT22;74205;52.786;6.892;2023-12-20T13:59:37;6.60;96.50
52669;DHT22;74205;52.786;6.892;2023-12-20T14:02:57;6.50;96.80
52669;DHT22;74205;52.786;6.892;2023-12-20T14:06:19;6.50;97.10
52669;DHT22;74205;52.786;6.892;2023-12-20T14:09:40;6.50;97.30
52669;DHT22;74205;52.786;6.892;2023-12-20T14:13:05;6.50;97.40
52669;DHT22;74205;52.786;6.892;2023-12-20T14:16:26;6.50;97.70
52669;DHT22;74205;52.786;6.892;2023-12-20T14:19:46;6.60;98.00
52669;DHT22;74205;52.786;6.892;2023-12-20T14:23:07;6.50;98.10
52669;DHT22;74205;52.786;6.892;2023-12-20T14:26:27;6.50;98.20
52669;DHT22;74205;52.786;6.892;2023-12-20T14:29:48;6.50;98.80
52669;DHT22;74205;52.786;6.892;2023-12-20T14:33:08;6.50;99.00
52669;DHT22;74205;52.786;6.892;2023-12-20T14:36:29;6.50;99.30
52669;DHT22;74205;52.786;6.892;2023-12-20T14:39:51;6.50;99.30
52669;DHT22;74205;52.786;6.892;2023-12-20T14:43:11;6.50;99.30
52669;DHT22;74205;52.786;6.892;2023-12-20T14:46:32;6.50;99.70
52669;DHT22;74205;52.786;6.892;2023-12-20T14:49:52;6.50;99.80
52669;DHT22;74205;52.786;6.892;2023-12-20T14:53:13;6.50;100.00
52669;DHT22;74205;52.786;6.892;2023-12-20T14:56:35;6.50;100.00
52669;DHT22;74205;52.786;6.892;2023-12-20T14:59:56;6.50;100.00
52669;DHT22;74205;52.786;6.892;2023-12-20T15:03:17;6.40;100.00
52669;DHT22;74205;52.786;6.892;2023-12-20T15:06:39;6.40;100.00
52669;DHT22;74205;52.786;6.892;2023-12-20T15:09:59;6.40;100.00
52669;DHT22;74205;52.786;6.892;2023-12-20T15:13:20;6.40;100.00
52669;DHT22;74205;52.786;6.892;2023-12-20T15:16:40;6.40;100.00
52669;DHT22;74205;52.786;6.892;2023-12-20T15:20:01;6.40;100.00
52669;DHT22;74205;52.786;6.892;2023-12-20T15:23:21;6.50;100.00
52669;DHT22;74205;52.786;6.892;2023-12-20T15:26:46;6.60;100.00
52669;DHT22;74205;52.786;6.892;2023-12-20T15:30:07;6.60;100.00
52669;DHT22;74205;52.786;6.892;2023-12-20T15:33:29;6.60;100.00
52669;DHT22;74205;52.786;6.892;2023-12-20T15:36:50;6.70;100.00
52669;DHT22;74205;52.786;6.892;2023-12-20T15:40:11;6.70;100.00
52669;DHT22;74205;52.786;6.892;2023-12-20T15:43:32;6.70;100.00
52669;DHT22;74205;52.786;6.892;2023-12-20T15:46:53;6.60;100.00
52669;DHT22;74205;52.786;6.892;2023-12-20T15:50:13;6.70;100.00
52669;DHT22;74205;52.786;6.892;2023-12-20T15:53:34;6.70;100.00
52669;DHT22;74205;52.786;6.892;2023-12-20T15:56:55;6.80;100.00
52669;DHT22;74205;52.786;6.892;2023-12-20T16:00:15;6.80;100.00
52669;DHT22;74205;52.786;6.892;2023-12-20T16:03:36;6.80;100.00
52669;DHT22;74205;52.786;6.892;2023-12-20T16:06:57;6.80;100.00
52669;DHT22;74205;52.786;6.892;2023-12-20T16:10:17;6.90;100.00
52669;DHT22;74205;52.786;6.892;2023-12-20T16:13:38;7.00;100.00
52669;DHT22;74205;52.786;6.892;2023-12-20T16:16:59;7.00;100.00
52669;DHT22;74205;52.786;6.892;2023-12-20T16:20:20;7.10;100.00
52669;DHT22;74205;52.786;6.892;2023-12-20T16:23:40;7.10;100.00
52669;DHT22;74205;52.786;6.892;2023-12-20T16:27:01;7.20;100.00
52669;DHT22;74205;52.786;6.892;2023-12-20T16:30:22;7.20;100.00
52669;DHT22;74205;52.786;6.892;2023-12-20T16:33:42;7.20;100.00
52669;DHT22;74205;52.786;6.892;2023-12-20T16:37:03;7.20;100.00
52669;DHT22;74205;52.786;6.892;2023-12-20T16:40:23;7.20;100.00
52669;DHT22;74205;52.786;6.892;2023-12-20T16:43:44;7.30;100.00
52669;DHT22;74205;52.786;6.892;2023-12-20T16:47:06;7.20;100.00
52669;DHT22;74205;52.786;6.892;2023-12-20T16:50:26;7.20;100.00
52669;DHT22;74205;52.786;6.892;2023-12-20T16:53:47;7.30;100.00
52669;DHT22;74205;52.786;6.892;2023-12-20T16:57:08;7.30;100.00
52669;DHT22;74205;52.786;6.892;2023-12-20T17:00:29;7.30;100.00
52669;DHT22;74205;52.786;6.892;2023-12-20T17:03:49;7.30;100.00
52669;DHT22;74205;52.786;6.892;2023-12-20T17:07:11;7.30;100.00
52669;DHT22;74205;52.786;6.892;2023-12-20T17:10:31;7.30;100.00
52669;DHT22;74205;52.786;6.892;2023-12-20T17:13:52;7.30;100.00
52669;DHT22;74205;52.786;6.892;2023-12-20T17:17:13;7.30;100.00
52669;DHT22;74205;52.786;6.892;2023-12-20T17:20:33;7.30;100.00
52669;DHT22;74205;52.786;6.892;2023-12-20T17:23:54;7.30;100.00
52669;DHT22;74205;52.786;6.892;2023-12-20T17:27:14;7.40;100.00
52669;DHT22;74205;52.786;6.892;2023-12-20T17:30:35;7.40;100.00
52669;DHT22;74205;52.786;6.892;2023-12-20T17:33:55;7.40;100.00
52669;DHT22;74205;52.786;6.892;2023-12-20T17:37:16;7.50;100.00
52669;DHT22;74205;52.786;6.892;2023-12-20T17:40:37;7.50;100.00
52669;DHT22;74205;52.786;6.892;2023-12-20T17:43:59;7.50;100.00
52669;DHT22;74205;52.786;6.892;2023-12-20T17:47:20;7.50;100.00
52669;DHT22;74205;52.786;6.892;2023-12-20T17:50:42;7.50;100.00
52669;DHT22;74205;52.786;6.892;2023-12-20T17:54:03;7.50;100.00
52669;DHT22;74205;52.786;6.892;2023-12-20T17:57:24;7.50;100.00
52669;DHT22;74205;52.786;6.892;2023-12-20T18:00:45;7.50;100.00
52669;DHT22;74205;52.786;6.892;2023-12-20T18:04:06;7.50;100.00
52669;DHT22;74205;52.786;6.892;2023-12-20T18:07:27;7.50;100.00
52669;DHT22;74205;52.786;6.892;2023-12-20T18:10:48;7.50;100.00
52669;DHT22;74205;52.786;6.892;2023-12-20T18:14:08;7.50;100.00
52669;DHT22;74205;52.786;6.892;2023-12-20T18:17:30;7.50;100.00
52669;DHT22;74205;52.786;6.892;2023-12-20T18:20:51;7.50;100.00
52669;DHT22;74205;52.786;6.892;2023-12-20T18:24:14;7.50;100.00
52669;DHT22;74205;52.786;6.892;2023-12-20T18:27:35;7.50;100.00
52669;DHT22;74205;52.786;6.892;2023-12-20T18:30:55;7.40;100.00
52669;DHT22;74205;52.786;6.892;2023-12-20T18:34:16;7.50;100.00
52669;DHT22;74205;52.786;6.892;2023-12-20T18:37:37;7.40;100.00
52669;DHT22;74205;52.786;6.892;2023-12-20T18:40:59;7.40;100.00
52669;DHT22;74205;52.786;6.892;2023-12-20T18:44:20;7.50;100.00
52669;DHT22;74205;52.786;6.892;2023-12-20T18:47:41;7.50;100.00
52669;DHT22;74205;52.786;6.892;2023-12-20T18:51:01;7.50;100.00
52669;DHT22;74205;52.786;6.892;2023-12-20T18:54:22;7.50;100.00
52669;DHT22;74205;52.786;6.892;2023-12-20T18:57:42;7.50;100.00
52669;DHT22;74205;52.786;6.892;2023-12-20T19:01:03;7.60;100.00
52669;DHT22;74205;52.786;6.892;2023-12-20T19:04:24;7.60;100.00
52669;DHT22;74205;52.786;6.892;2023-12-20T19:07:44;7.60;100.00
52669;DHT22;74205;52.786;6.892;2023-12-20T19:11:05;7.60;100.00
52669;DHT22;74205;52.786;6.892;2023-12-20T19:14:26;7.70;100.00
52669;DHT22;74205;52.786;6.892;2023-12-20T19:17:47;7.70;100.00
52669;DHT22;74205;52.786;6.892;2023-12-20T19:21:07;7.70;100.00
52669;DHT22;74205;52.786;6.892;2023-12-20T19:24:29;7.80;100.00
52669;DHT22;74205;52.786;6.892;2023-12-20T19:27:49;7.80;100.00
52669;DHT22;74205;52.786;6.892;2023-12-20T19:31:10;7.80;100.00
52669;DHT22;74205;52.786;6.892;2023-12-20T19:34:31;7.80;100.00
52669;DHT22;74205;52.786;6.892;2023-12-20T19:37:53;7.90;100.00
52669;DHT22;74205;52.786;6.892;2023-12-20T19:41:13;7.90;100.00
52669;DHT22;74205;52.786;6.892;2023-12-20T19:44:34;7.90;100.00
52669;DHT22;74205;52.786;6.892;2023-12-20T19:47:54;8.00;100.00
52669;DHT22;74205;52.786;6.892;2023-12-20T19:51:15;8.00;100.00
52669;DHT22;74205;52.786;6.892;2023-12-20T19:54:35;8.00;100.00
52669;DHT22;74205;52.786;6.892;2023-12-20T19:57:56;8.10;100.00
52669;DHT22;74205;52.786;6.892;2023-12-20T20:01:17;8.10;100.00
52669;DHT22;74205;52.786;6.892;2023-12-20T20:04:37;8.10;100.00
52669;DHT22;74205;52.786;6.892;2023-12-20T20:07:58;8.20;100.00
52669;DHT22;74205;52.786;6.892;2023-12-20T20:11:18;8.20;100.00
52669;DHT22;74205;52.786;6.892;2023-12-20T20:14:39;8.20;100.00
52669;DHT22;74205;52.786;6.892;2023-12-20T20:17:59;8.20;100.00
52669;DHT22;74205;52.786;6.892;2023-12-20T20:21:20;8.20;100.00
52669;DHT22;74205;52.786;6.892;2023-12-20T20:24:40;8.20;100.00
52669;DHT22;74205;52.786;6.892;2023-12-20T20:28:01;8.20;100.00
52669;DHT22;74205;52.786;6.892;2023-12-20T20:31:22;8.30;100.00
52669;DHT22;74205;52.786;6.892;2023-12-20T20:34:45;8.30;100.00
52669;DHT22;74205;52.786;6.892;2023-12-20T20:38:06;8.30;100.00
52669;DHT22;74205;52.786;6.892;2023-12-20T20:41:26;8.30;100.00
52669;DHT22;74205;52.786;6.892;2023-12-20T20:44:47;8.30;100.00
52669;DHT22;74205;52.786;6.892;2023-12-20T20:48:08;8.30;100.00
52669;DHT22;74205;52.786;6.892;2023-12-20T20:51:31;8.40;100.00
52669;DHT22;74205;52.786;6.892;2023-12-20T20:54:51;8.40;100.00
52669;DHT22;74205;52.786;6.892;2023-12-20T20:58:12;8.40;100.00
52669;DHT22;74205;52.786;6.892;2023-12-20T21:01:32;8.40;100.00
52669;DHT22;74205;52.786;6.892;2023-12-20T21:04:53;8.50;100.00
52669;DHT22;74205;52.786;6.892;2023-12-20T21:08:14;8.50;100.00
52669;DHT22;74205;52.786;6.892;2023-12-20T21:11:34;8.50;100.00
52669;DHT22;74205;52.786;6.892;2023-12-20T21:14:55;8.50;100.00